createdAt,value
2023-03-13T00:02:22.418Z,6.60
2023-03-13T00:05:08.834Z,6.28
2023-03-13T00:07:54.237Z,6.82
2023-03-13T00:10:41.318Z,6.13
2023-03-13T00:13:27.007Z,7.13
2023-03-13T00:16:16.767Z,6.85
2023-03-13T00:19:02.510Z,6.85
2023-03-13T00:21:47.882Z,5.90
2023-03-13T00:24:34.059Z,6.40
2023-03-13T00:27:19.305Z,7.03
2023-03-13T00:30:06.377Z,6.35
2023-03-13T00:32:51.875Z,7.13
2023-03-13T00:35:37.278Z,5.72
2023-03-13T00:38:22.455Z,5.90
2023-03-13T00:41:12.338Z,7.05
2023-03-13T00:43:58.559Z,6.05
2023-03-13T00:46:43.770Z,7.15
2023-03-13T00:49:29.275Z,7.70
2023-03-13T00:52:14.717Z,8.47
2023-03-13T00:55:00.216Z,5.45
2023-03-13T00:57:45.540Z,7.13
2023-03-13T01:48:01.026Z,6.68
2023-03-13T01:51:08.855Z,5.85
2023-03-13T01:54:04.754Z,6.10
2023-03-13T01:56:59.778Z,7.03
2023-03-13T02:49:20.056Z,7.07
2023-03-13T02:52:19.779Z,6.90
2023-03-13T02:55:10.650Z,6.70
2023-03-13T02:57:56.031Z,8.15
2023-03-13T03:46:32.055Z,4.97
2023-03-13T03:49:17.354Z,4.25
2023-03-13T03:52:03.427Z,7.10
2023-03-13T03:54:54.856Z,4.47
2023-03-13T03:57:40.595Z,4.77
2023-03-13T04:46:21.472Z,4.63
2023-03-13T04:49:25.316Z,5.47
2023-03-13T04:52:28.599Z,5.78
2023-03-13T04:55:32.923Z,5.07
2023-03-13T04:58:40.109Z,5.32
2023-03-13T05:47:34.084Z,4.28
2023-03-13T05:50:43.940Z,4.43
2023-03-13T05:53:35.384Z,6.65
2023-03-13T05:56:29.785Z,6.03
2023-03-13T05:59:28.844Z,5.63
2023-03-13T06:02:33.074Z,4.80
2023-03-13T06:05:19.088Z,5.17
2023-03-13T06:08:05.368Z,4.63
2023-03-13T06:10:51.029Z,4.82
2023-03-13T06:13:36.314Z,4.50
2023-03-13T06:16:30.198Z,5.60
2023-03-13T06:19:29.678Z,5.13
2023-03-13T06:22:16.674Z,5.50
2023-03-13T06:25:02.177Z,5.78
2023-03-13T06:27:47.778Z,5.20
2023-03-13T06:30:33.035Z,4.97
2023-03-13T06:33:18.529Z,4.83
2023-03-13T06:36:04.485Z,4.28
2023-03-13T06:38:50.070Z,4.72
2023-03-13T06:41:36.138Z,6.00
2023-03-13T06:44:21.482Z,6.78
2023-03-13T06:47:07.216Z,9.33
2023-03-13T06:49:52.682Z,4.70
2023-03-13T06:52:44.029Z,4.35
2023-03-13T06:55:29.945Z,4.57
2023-03-13T06:58:31.053Z,5.05
2023-03-13T07:01:18.285Z,6.70
2023-03-13T07:04:03.851Z,6.68
2023-03-13T07:06:49.058Z,6.47
2023-03-13T07:09:34.729Z,5.38
2023-03-13T07:12:20.466Z,5.65
2023-03-13T07:15:06.543Z,5.53
2023-03-13T07:17:52.304Z,7.05
2023-03-13T07:20:37.798Z,7.93
2023-03-13T07:23:24.285Z,6.78
2023-03-13T07:26:17.059Z,6.13
2023-03-13T07:29:02.345Z,6.00
2023-03-13T07:31:47.670Z,7.72
2023-03-13T07:34:33.000Z,6.75
2023-03-13T07:37:18.527Z,7.57
2023-03-13T07:40:04.963Z,8.73
2023-03-13T07:42:50.352Z,9.83
2023-03-13T07:45:35.638Z,9.55
2023-03-13T07:48:22.314Z,10.10
2023-03-13T07:51:12.314Z,7.35
2023-03-13T07:53:58.309Z,8.93
2023-03-13T07:56:43.524Z,8.03
2023-03-13T07:59:29.056Z,10.70
2023-03-13T08:02:14.440Z,8.30
2023-03-13T08:04:59.563Z,8.38
2023-03-13T08:07:45.303Z,8.50
2023-03-13T08:10:31.332Z,9.10
2023-03-13T08:13:16.838Z,7.15
2023-03-13T08:16:14.183Z,10.85
2023-03-13T08:19:01.101Z,8.00
2023-03-13T08:21:46.499Z,7.45
2023-03-13T08:24:31.933Z,7.80
2023-03-13T08:27:17.489Z,7.35
2023-03-13T08:30:02.984Z,8.00
2023-03-13T08:32:48.355Z,6.85
2023-03-13T08:35:33.505Z,7.47
2023-03-13T08:38:19.001Z,6.90
2023-03-13T08:41:05.078Z,7.80
2023-03-13T08:43:53.328Z,7.90
2023-03-13T08:46:39.453Z,6.38
2023-03-13T08:49:24.817Z,8.00
2023-03-13T08:52:10.456Z,7.30
2023-03-13T08:54:56.163Z,6.65
2023-03-13T08:57:41.483Z,6.13
2023-03-13T09:00:26.850Z,7.18
2023-03-13T09:03:12.139Z,6.38
2023-03-13T09:05:58.714Z,7.80
2023-03-13T09:08:44.803Z,7.10
2023-03-13T09:11:30.058Z,6.05
2023-03-13T09:14:15.390Z,6.47
2023-03-13T09:17:00.834Z,7.80
2023-03-13T09:19:59.322Z,7.33
2023-03-13T09:22:46.428Z,6.07
2023-03-13T09:25:31.485Z,6.00
2023-03-13T09:28:17.148Z,7.40
2023-03-13T09:31:08.940Z,7.55
2023-03-13T09:33:54.673Z,5.13
2023-03-13T09:36:39.904Z,5.57
2023-03-13T09:39:25.352Z,5.80
2023-03-13T09:42:14.671Z,6.72
2023-03-13T09:45:07.913Z,6.88
2023-03-13T09:47:58.964Z,5.70
2023-03-13T09:50:52.487Z,8.07
2023-03-13T09:53:43.998Z,5.65
2023-03-13T09:56:44.810Z,5.03
2023-03-13T10:00:13.011Z,5.38
2023-03-13T10:03:09.036Z,5.57
2023-03-13T10:06:01.543Z,4.55
2023-03-13T10:08:46.833Z,5.97
2023-03-13T10:11:51.491Z,5.20
2023-03-13T10:14:46.228Z,5.15
2023-03-13T10:17:36.762Z,5.50
2023-03-13T10:20:36.208Z,5.72
2023-03-13T10:23:38.331Z,3.83
2023-03-13T10:26:29.137Z,6.55
2023-03-13T10:29:25.137Z,4.68
2023-03-13T10:32:14.648Z,4.50
2023-03-13T10:35:03.118Z,5.35
2023-03-13T10:37:48.434Z,5.35
2023-03-13T10:40:33.811Z,5.55
2023-03-13T10:43:22.479Z,4.82
2023-03-13T10:46:08.897Z,5.33
2023-03-13T10:48:56.064Z,5.88
2023-03-13T10:51:48.551Z,5.18
2023-03-13T10:54:37.422Z,4.55
2023-03-13T10:57:30.111Z,5.22
2023-03-13T11:00:36.518Z,6.93
2023-03-13T11:03:33.500Z,5.40
2023-03-13T11:06:32.154Z,4.50
2023-03-13T11:09:17.924Z,5.10
2023-03-13T11:12:07.376Z,4.57
2023-03-13T11:15:01.186Z,5.87
2023-03-13T11:17:58.363Z,6.15
2023-03-13T11:20:46.551Z,5.82
2023-03-13T11:23:42.670Z,5.22
2023-03-13T11:26:39.834Z,5.15
2023-03-13T11:29:39.885Z,5.63
2023-03-13T11:33:03.145Z,6.20
2023-03-13T11:36:07.537Z,5.35
2023-03-13T11:39:02.676Z,4.45
2023-03-13T11:42:08.827Z,4.93
2023-03-13T11:45:12.954Z,4.50
2023-03-13T11:48:13.568Z,6.30
2023-03-13T11:51:04.858Z,4.82
2023-03-13T11:54:02.092Z,5.32
2023-03-13T11:57:00.035Z,4.32
2023-03-13T12:00:07.269Z,4.33
2023-03-13T12:03:07.191Z,6.03
2023-03-13T12:05:56.201Z,5.88
2023-03-13T12:08:49.007Z,4.75
2023-03-13T12:12:03.140Z,4.68
2023-03-13T12:14:57.409Z,3.57
2023-03-13T12:18:00.157Z,5.13
2023-03-13T12:21:15.409Z,4.63
2023-03-13T12:24:32.843Z,5.68
2023-03-13T12:27:32.726Z,5.15
2023-03-13T12:30:47.426Z,4.33
2023-03-13T12:33:42.859Z,5.53
2023-03-13T12:36:36.144Z,4.93
2023-03-13T12:39:50.105Z,5.82
2023-03-13T12:43:02.415Z,4.93
2023-03-13T12:45:57.448Z,5.57
2023-03-13T12:49:07.987Z,4.55
2023-03-13T12:52:12.227Z,4.60
2023-03-13T12:55:17.845Z,5.05
2023-03-13T12:58:09.076Z,5.63
2023-03-13T13:00:56.200Z,5.27
2023-03-13T13:03:53.414Z,6.43
2023-03-13T13:07:02.350Z,5.53
2023-03-13T13:10:20.697Z,5.07
2023-03-13T13:13:15.366Z,4.82
2023-03-13T13:16:05.929Z,5.53
2023-03-13T13:18:51.733Z,5.47
2023-03-13T13:21:38.147Z,6.03
2023-03-13T13:24:54.839Z,4.75
2023-03-13T13:27:40.456Z,6.57
2023-03-13T13:30:32.379Z,5.40
2023-03-13T13:33:21.420Z,4.95
2023-03-13T13:36:09.663Z,4.93
2023-03-13T13:38:56.444Z,5.05
2023-03-13T13:41:41.715Z,4.18
2023-03-13T13:44:29.527Z,5.27
2023-03-13T13:47:26.343Z,5.38
2023-03-13T13:50:24.989Z,4.38
2023-03-13T13:53:56.185Z,4.35
2023-03-13T13:56:45.538Z,5.28
2023-03-13T13:59:36.461Z,4.47
2023-03-13T14:02:36.633Z,5.25
2023-03-13T14:05:23.281Z,3.67
2023-03-13T14:08:21.623Z,4.70
2023-03-13T14:11:30.526Z,4.72
2023-03-13T14:14:18.379Z,5.33
2023-03-13T14:17:04.038Z,5.00
2023-03-13T14:19:49.661Z,5.28
2023-03-13T14:22:49.063Z,4.43
2023-03-13T14:25:47.742Z,4.57
2023-03-13T14:28:33.041Z,5.27
2023-03-13T14:31:31.768Z,4.60
2023-03-13T14:34:17.399Z,4.43
2023-03-13T14:37:17.764Z,5.65
2023-03-13T14:40:20.449Z,3.95
2023-03-13T14:43:23.505Z,4.43
2023-03-13T14:46:22.653Z,5.15
2023-03-13T14:49:25.468Z,4.13
2023-03-13T14:52:25.968Z,4.80
2023-03-13T14:55:23.174Z,4.82
2023-03-13T14:58:20.681Z,4.93
2023-03-13T15:01:17.222Z,3.78
2023-03-13T15:04:02.713Z,5.55
2023-03-13T15:06:48.254Z,3.85
2023-03-13T15:09:33.411Z,3.65
2023-03-13T15:12:24.059Z,3.87
2023-03-13T15:15:11.053Z,3.65
2023-03-13T15:17:56.639Z,3.05
2023-03-13T15:20:41.839Z,4.00
2023-03-13T15:23:28.185Z,7.63
2023-03-13T15:26:13.484Z,3.93
2023-03-13T15:28:58.934Z,4.05
2023-03-13T15:31:44.645Z,3.20
2023-03-13T15:34:34.444Z,3.33
2023-03-13T15:37:20.089Z,3.92
2023-03-13T15:40:07.978Z,4.07
2023-03-13T15:42:54.972Z,4.25
2023-03-13T15:45:42.928Z,5.05
2023-03-13T15:48:31.152Z,3.90
2023-03-13T15:51:17.452Z,3.83
2023-03-13T15:54:02.825Z,3.37
2023-03-13T15:56:48.310Z,3.53
2023-03-13T15:59:35.505Z,3.88
2023-03-13T16:02:23.528Z,4.32
2023-03-13T16:05:10.218Z,2.90
2023-03-13T16:07:56.297Z,3.67
2023-03-13T16:10:41.915Z,2.95
2023-03-13T16:13:27.585Z,5.43
2023-03-13T16:16:28.517Z,3.22
2023-03-13T16:19:14.268Z,3.53
2023-03-13T16:21:59.454Z,3.80
2023-03-13T16:24:44.870Z,3.25
2023-03-13T16:27:30.972Z,4.03
2023-03-13T16:30:22.705Z,3.33
2023-03-13T16:33:08.304Z,3.25
2023-03-13T16:35:54.681Z,3.33
2023-03-13T16:38:40.068Z,4.22
2023-03-13T16:41:30.098Z,3.83
2023-03-13T16:44:15.287Z,3.65
2023-03-13T16:47:05.991Z,4.13
2023-03-13T16:49:52.064Z,4.63
2023-03-13T16:52:37.541Z,3.80
2023-03-13T16:55:28.393Z,3.65
2023-03-13T16:58:14.190Z,3.17
2023-03-13T17:01:05.871Z,3.22
2023-03-13T17:03:52.540Z,3.77
2023-03-13T17:06:42.341Z,3.60
2023-03-13T17:09:28.955Z,3.85
2023-03-13T17:12:17.893Z,2.95
2023-03-13T17:15:03.690Z,3.05
2023-03-13T17:17:54.174Z,3.50
2023-03-13T17:20:40.028Z,3.15
2023-03-13T17:23:25.844Z,2.97
2023-03-13T17:26:29.299Z,2.75
2023-03-13T17:29:17.775Z,3.50
2023-03-13T17:32:04.157Z,2.80
2023-03-13T17:34:49.532Z,3.58
2023-03-13T17:37:35.730Z,4.05
2023-03-13T17:40:24.671Z,3.40
2023-03-13T17:43:13.075Z,4.00
2023-03-13T17:46:00.160Z,2.93
2023-03-13T17:48:47.838Z,5.82
2023-03-13T17:51:34.995Z,3.78
2023-03-13T17:54:22.019Z,2.45
2023-03-13T17:57:22.178Z,3.97
2023-03-13T18:00:30.330Z,3.03
2023-03-13T18:03:15.558Z,4.22
2023-03-13T18:06:01.078Z,3.75
2023-03-13T18:08:48.194Z,11.02
2023-03-13T18:11:35.298Z,5.82
2023-03-13T18:14:22.341Z,3.80
2023-03-13T18:17:19.975Z,2.80
2023-03-13T18:20:13.835Z,4.00
2023-03-13T18:23:00.574Z,4.47
2023-03-13T18:25:46.774Z,3.75
2023-03-13T18:28:32.719Z,3.73
2023-03-13T18:31:19.253Z,2.72
2023-03-13T18:34:05.406Z,3.55
2023-03-13T18:36:51.490Z,5.03
2023-03-13T18:39:37.518Z,3.35
2023-03-13T18:42:27.788Z,3.77
2023-03-13T18:45:19.671Z,4.15
2023-03-13T18:48:11.155Z,3.30
2023-03-13T18:50:56.871Z,4.75
2023-03-13T18:53:42.542Z,3.28
2023-03-13T18:56:34.429Z,4.53
2023-03-13T18:59:22.059Z,4.18
2023-03-13T19:02:15.451Z,4.00
2023-03-13T19:05:00.955Z,3.25
2023-03-13T19:07:46.416Z,3.38
2023-03-13T19:10:33.414Z,3.90
2023-03-13T19:13:18.772Z,7.70
2023-03-13T19:16:09.812Z,4.63
2023-03-13T19:18:55.391Z,6.88
2023-03-13T19:21:41.052Z,4.28
2023-03-13T19:24:26.882Z,5.50
2023-03-13T19:27:14.528Z,4.03
2023-03-13T19:30:00.927Z,7.97
2023-03-13T19:32:47.009Z,4.70
2023-03-13T19:35:32.593Z,5.55
2023-03-13T19:38:17.863Z,4.03
2023-03-13T19:41:03.232Z,4.13
2023-03-13T19:43:48.820Z,4.85
2023-03-13T19:46:37.596Z,3.17
2023-03-13T19:49:23.516Z,3.63
2023-03-13T19:52:09.159Z,4.73
2023-03-13T19:54:55.864Z,3.83
2023-03-13T19:57:41.541Z,2.95
2023-03-13T20:00:28.005Z,3.75
2023-03-13T20:03:13.466Z,3.75
2023-03-13T20:05:58.748Z,4.17
2023-03-13T20:08:44.907Z,2.20
2023-03-13T20:11:30.642Z,2.95
2023-03-13T20:14:15.870Z,4.30
2023-03-13T20:17:03.305Z,3.38
2023-03-13T20:19:48.845Z,4.17
2023-03-13T20:22:34.993Z,2.88
2023-03-13T20:25:20.279Z,2.92
2023-03-13T20:28:05.648Z,3.47
2023-03-13T20:30:54.206Z,6.47
2023-03-13T20:33:40.521Z,4.27
2023-03-13T20:36:26.891Z,4.07
2023-03-13T20:39:12.490Z,4.47
2023-03-13T20:42:02.852Z,5.25
2023-03-13T20:44:49.239Z,2.00
2023-03-13T20:47:34.739Z,3.50
2023-03-13T20:50:20.532Z,2.92
2023-03-13T20:53:05.987Z,3.80
2023-03-13T20:55:52.026Z,3.88
2023-03-13T20:58:38.299Z,3.63
2023-03-13T21:01:25.472Z,2.50
2023-03-13T21:04:11.841Z,3.33
2023-03-13T21:07:04.508Z,3.42
2023-03-13T21:09:50.255Z,4.13
2023-03-13T21:12:36.447Z,3.45
2023-03-13T21:15:21.904Z,5.00
2023-03-13T21:18:07.607Z,3.67
2023-03-13T21:20:53.227Z,2.60
2023-03-13T21:23:39.357Z,4.65
2023-03-13T21:26:24.793Z,2.78
2023-03-13T21:29:10.975Z,3.47
2023-03-13T21:31:56.262Z,3.00
2023-03-13T21:34:43.359Z,4.50
2023-03-13T21:37:29.136Z,4.50
2023-03-13T21:40:14.489Z,4.22
2023-03-13T21:43:00.493Z,3.53
2023-03-13T21:45:45.964Z,5.13
2023-03-13T21:48:31.517Z,3.65
2023-03-13T21:51:17.597Z,3.67
2023-03-13T21:54:03.350Z,4.28
2023-03-13T21:56:48.831Z,3.53
2023-03-13T21:59:34.324Z,4.03
2023-03-13T22:02:19.806Z,3.92
2023-03-13T22:05:05.867Z,4.38
2023-03-13T22:07:51.630Z,2.70
2023-03-13T22:10:40.459Z,3.63
2023-03-13T22:13:26.147Z,3.80
2023-03-13T22:16:12.252Z,5.07
2023-03-13T22:18:57.649Z,3.75
2023-03-13T22:21:44.130Z,2.80
2023-03-13T22:24:29.645Z,2.93
2023-03-13T22:27:16.017Z,3.08
2023-03-13T22:30:03.822Z,3.70
2023-03-13T22:32:50.255Z,4.93
2023-03-13T22:35:38.929Z,3.63
2023-03-13T22:38:24.246Z,4.53
2023-03-13T22:41:12.469Z,3.00
2023-03-13T22:43:58.004Z,4.18
2023-03-13T22:46:43.531Z,3.72
2023-03-13T22:49:29.278Z,3.72
2023-03-13T22:52:14.801Z,2.93
2023-03-13T22:55:00.213Z,3.90
2023-03-13T22:57:45.601Z,1.95
2023-03-13T23:00:32.048Z,5.07
2023-03-13T23:03:18.742Z,5.45
2023-03-13T23:06:09.069Z,3.00
2023-03-13T23:08:54.525Z,2.55
2023-03-13T23:11:40.066Z,3.47
2023-03-13T23:14:29.081Z,4.55
2023-03-13T23:17:14.945Z,3.33
2023-03-13T23:20:05.765Z,3.43
2023-03-13T23:22:52.386Z,6.45
2023-03-13T23:25:40.884Z,4.22
2023-03-13T23:28:26.610Z,4.85
2023-03-13T23:31:17.876Z,5.45
2023-03-13T23:34:02.982Z,5.67
2023-03-13T23:36:49.737Z,3.58
2023-03-13T23:39:35.149Z,3.25
2023-03-13T23:42:20.504Z,4.03
2023-03-13T23:45:06.670Z,4.35
2023-03-13T23:47:53.278Z,3.43
2023-03-13T23:50:38.671Z,2.90
2023-03-13T23:53:24.530Z,3.50
2023-03-13T23:56:11.405Z,3.90
2023-03-13T23:58:56.818Z,3.55
